Reklama

Seznam meteostanic a jejich METAR

Vyhledat místa podle abecedy:
A B C D E F G H I J K L M N O P Q R S T U V W X Y Z

Filtrovat:

ID stanice:
a/nebo
Název místa (fulltext):
 
Místo (ID)Naposledy načteno 
Iasi (LRIA) 31.05.2020 05:00 UTC Zobrazit METAR
LRIA 310500Z 21008KT CAVOK 13/07 Q1006 R14/19//95
Ibiza (LEIB) 31.05.2020 05:00 UTC Zobrazit METAR
LEIB 310500Z 10003KT 020V150 CAVOK 18/16 Q1014 NOSIG
Innsbruck (LOWI) 31.05.2020 04:50 UTC Zobrazit METAR
LOWI 310450Z AUTO 25003KT 9999 FEW060 07/04 Q1019
Iraklion (LGIR) 31.05.2020 04:50 UTC Zobrazit METAR
LGIR 310450Z 16006KT 9999 SCT025 BKN080 18/12 Q1016 NOSIG
Isafjordur (BIIS) 30.05.2020 15:00 UTC Zobrazit METAR
BIIS 301500Z 21010G20KT 9999 SCT035 BKN045 11/01 Q1014
Isla de Pascua (SCIP) 31.05.2020 05:00 UTC Zobrazit METAR
SCIP 310500Z 10005KT 9999 SCT025 15/13 Q1027 NOSIG
Islamabad (OPRN) 28.12.2019 11:00 UTC Zobrazit METAR
OPRN 281100Z 05004KT 1400 BR SCT100 11/08 Q1016 BECMG 1500 BR
Istanbul (LTBA) 31.05.2020 04:50 UTC Zobrazit METAR
LTBA 310450Z 20005KT 170V240 CAVOK 18/14 Q1015 NOSIG
Ivano-Frankivs'k (UKLI) Zatím nenačteno  
Reklama

Lunární kalendář

  • 05.06.Fáze měsíce uplnek
  • 13.06.Fáze měsíce posl_ctvrt
  • 21.06.Fáze měsíce nov
  • 28.06.Fáze měsíce prv_ctvrt



Reklama
Meteodomečky

Počasí na Váš email

Emaily jsou bez reklamy a bez spamu



Odhlásit newsletter

Reklama


Další české internetové stránky (nejen) o počasí najdete v katalogu TOPlist - weby o počasí nebo vyhledejte na internetu, co jste tu na 🌞 Slunečnu ⛅ zatím nenašli:

Reklama